createdAt,value
2018-04-27T00:02:17.554Z,6.80
2018-04-27T00:04:45.155Z,6.70
2018-04-27T00:07:12.728Z,6.60
2018-04-27T00:09:40.384Z,6.60
2018-04-27T00:12:08.805Z,6.60
2018-04-27T00:14:36.548Z,6.50
2018-04-27T00:17:04.207Z,6.50
2018-04-27T00:19:31.848Z,6.60
2018-04-27T00:21:59.452Z,6.50
2018-04-27T00:24:27.056Z,6.50
2018-04-27T00:26:54.648Z,6.50
2018-04-27T00:29:23.011Z,6.40
2018-04-27T00:31:50.588Z,6.40
2018-04-27T00:34:19.049Z,6.30
2018-04-27T00:36:46.591Z,6.30
2018-04-27T00:39:14.195Z,6.30
2018-04-27T00:41:41.801Z,6.30
2018-04-27T00:44:09.403Z,6.30
2018-04-27T00:46:36.978Z,6.30
2018-04-27T00:49:05.362Z,6.40
2018-04-27T00:51:33.713Z,6.40
2018-04-27T00:54:01.303Z,6.40
2018-04-27T00:56:28.899Z,6.40
2018-04-27T00:58:57.509Z,6.40
2018-04-27T01:01:25.092Z,6.50
2018-04-27T01:03:52.724Z,6.40
2018-04-27T01:06:20.309Z,6.40
2018-04-27T01:08:47.908Z,6.40
2018-04-27T01:11:15.513Z,6.30
2018-04-27T01:13:43.103Z,6.30
2018-04-27T01:19:02.480Z,6.00
2018-04-27T01:21:30.065Z,6.00
2018-04-27T01:27:03.470Z,5.80
2018-04-27T02:53:05.962Z,5.40
2018-04-27T02:55:33.530Z,5.40
2018-04-27T02:58:01.075Z,5.40
2018-04-27T03:00:29.419Z,5.50
2018-04-27T03:02:56.974Z,5.50
2018-04-27T03:05:24.555Z,5.60
2018-04-27T03:07:52.124Z,5.60
2018-04-27T03:10:19.707Z,5.60
2018-04-27T03:12:47.246Z,5.60
2018-04-27T03:15:14.804Z,5.60
2018-04-27T03:17:42.342Z,5.70
2018-04-27T03:20:09.896Z,5.80
2018-04-27T03:22:37.468Z,5.70
2018-04-27T03:27:39.081Z,5.70
2018-04-27T03:30:06.645Z,5.60
2018-04-27T03:32:34.222Z,5.70
2018-04-27T03:35:02.559Z,5.50
2018-04-27T03:37:30.117Z,5.40
2018-04-27T03:39:57.663Z,5.40
2018-04-27T03:42:25.247Z,5.40
2018-04-27T03:44:52.797Z,5.40
2018-04-27T03:47:20.362Z,5.40
2018-04-27T03:49:47.913Z,5.50
2018-04-27T03:52:15.499Z,5.50
2018-04-27T03:54:43.057Z,5.40
2018-04-27T03:57:10.624Z,5.40
2018-04-27T03:59:50.085Z,5.30
2018-04-27T04:02:30.227Z,5.30
2018-04-27T04:05:10.335Z,5.30
2018-04-27T04:07:37.903Z,5.30
2018-04-27T04:10:05.451Z,5.30
2018-04-27T04:12:33.027Z,5.20
2018-04-27T04:15:00.565Z,5.10
2018-04-27T04:17:28.153Z,5.10
2018-04-27T04:22:29.593Z,5.20
2018-04-27T04:24:57.868Z,5.20
2018-04-27T04:27:25.447Z,5.10
2018-04-27T04:29:52.993Z,5.10
2018-04-27T04:32:20.576Z,5.10
2018-04-27T04:34:48.128Z,5.00
2018-04-27T04:37:15.700Z,5.00
2018-04-27T04:39:43.259Z,5.10
2018-04-27T04:42:10.850Z,5.10
2018-04-27T04:44:39.159Z,5.10
2018-04-27T04:47:06.739Z,5.10
2018-04-27T04:49:34.282Z,5.10
2018-04-27T04:52:01.847Z,5.20
2018-04-27T04:54:29.401Z,5.30
2018-04-27T04:56:56.971Z,5.50
2018-04-27T04:59:24.518Z,5.50
2018-04-27T05:01:52.099Z,5.70
2018-04-27T05:04:19.661Z,5.80
2018-04-27T05:06:47.242Z,6.00
2018-04-27T05:09:14.787Z,6.20
2018-04-27T05:11:42.342Z,6.30
2018-04-27T05:14:09.920Z,6.40
2018-04-27T05:16:37.471Z,6.40
2018-04-27T05:19:05.980Z,6.50
2018-04-27T05:21:34.302Z,6.70
2018-04-27T05:24:01.878Z,6.60
2018-04-27T05:26:29.434Z,6.70
2018-04-27T05:28:57.011Z,6.80
2018-04-27T05:31:25.500Z,6.90
2018-04-27T05:33:53.083Z,7.00
2018-04-27T05:36:20.638Z,7.10
2018-04-27T05:38:48.986Z,7.10
2018-04-27T05:41:16.543Z,7.10
2018-04-27T05:43:44.104Z,7.20
2018-04-27T05:46:11.676Z,7.60
2018-04-27T05:48:39.239Z,7.50
2018-04-27T05:51:06.773Z,7.80
2018-04-27T05:53:34.338Z,7.80
2018-04-27T05:56:01.888Z,7.70
2018-04-27T05:58:29.455Z,7.60
2018-04-27T06:00:57.003Z,7.60
2018-04-27T06:03:24.579Z,7.60
2018-04-27T06:05:52.128Z,7.60
2018-04-27T06:08:19.714Z,7.60
2018-04-27T06:10:47.255Z,7.70
2018-04-27T06:13:14.849Z,7.70
2018-04-27T06:15:43.162Z,7.70
2018-04-27T06:18:10.745Z,7.70
2018-04-27T06:20:38.279Z,7.80
2018-04-27T06:23:05.851Z,7.90
2018-04-27T06:25:33.386Z,7.90
2018-04-27T06:28:00.963Z,8.00
2018-04-27T06:30:28.493Z,8.20
2018-04-27T06:32:56.823Z,8.40
2018-04-27T06:35:24.365Z,8.40
2018-04-27T06:37:51.920Z,8.50
2018-04-27T06:40:19.488Z,8.50
2018-04-27T06:42:47.028Z,8.70
2018-04-27T06:45:14.648Z,8.70
2018-04-27T06:47:42.169Z,8.90
2018-04-27T06:50:09.737Z,9.00
2018-04-27T06:52:37.279Z,9.20
2018-04-27T06:55:04.843Z,9.30
2018-04-27T06:57:32.394Z,9.60
2018-04-27T06:59:59.961Z,9.80
2018-04-27T07:02:27.524Z,9.80
2018-04-27T07:04:55.096Z,10.00
2018-04-27T07:07:22.650Z,10.20
2018-04-27T07:09:50.211Z,10.30
2018-04-27T07:12:17.768Z,10.50
2018-04-27T07:14:45.364Z,10.80
2018-04-27T07:17:12.911Z,11.00
2018-04-27T07:19:40.492Z,11.20
2018-04-27T07:22:08.813Z,11.50
2018-04-27T07:24:36.395Z,11.40
2018-04-27T07:27:03.940Z,11.70
2018-04-27T07:29:31.517Z,11.90
2018-04-27T07:31:59.062Z,12.20
2018-04-27T07:34:26.636Z,12.30
2018-04-27T07:36:54.187Z,12.50
2018-04-27T07:39:21.758Z,12.70
2018-04-27T07:41:49.311Z,13.00
2018-04-27T07:44:16.910Z,13.20
2018-04-27T07:46:45.210Z,13.60
2018-04-27T07:49:12.791Z,13.60
2018-04-27T07:51:40.413Z,13.80
2018-04-27T07:54:08.030Z,14.00
2018-04-27T07:56:35.676Z,14.30
2018-04-27T07:59:03.304Z,14.50
2018-04-27T08:01:30.878Z,14.60
2018-04-27T08:03:58.434Z,14.80
2018-04-27T08:06:26.927Z,14.90
2018-04-27T08:08:54.511Z,15.00
2018-04-27T08:11:22.077Z,15.20
2018-04-27T08:13:49.681Z,15.40
2018-04-27T08:16:18.012Z,15.80
2018-04-27T08:18:45.606Z,15.80
2018-04-27T08:21:13.973Z,16.10
2018-04-27T08:23:42.291Z,16.10
2018-04-27T08:26:09.851Z,16.10
2018-04-27T08:28:37.399Z,16.20
2018-04-27T08:31:05.003Z,16.40
2018-04-27T08:33:32.556Z,16.60
2018-04-27T08:36:00.131Z,16.70
2018-04-27T08:38:27.675Z,16.80
2018-04-27T08:40:55.239Z,17.00
2018-04-27T08:43:22.809Z,17.20
2018-04-27T08:45:50.375Z,17.30
2018-04-27T08:48:17.935Z,17.30
2018-04-27T08:50:45.515Z,17.40
2018-04-27T08:53:13.828Z,17.60
2018-04-27T08:55:41.395Z,17.60
2018-04-27T08:58:08.962Z,17.70
2018-04-27T09:00:36.534Z,17.80
2018-04-27T09:03:04.082Z,17.90
2018-04-27T09:05:31.655Z,18.00
2018-04-27T09:07:59.204Z,18.10
2018-04-27T09:10:26.807Z,18.20
2018-04-27T09:12:54.382Z,18.30
2018-04-27T09:15:22.697Z,18.30
2018-04-27T09:17:50.280Z,18.20
2018-04-27T09:20:17.830Z,18.10
2018-04-27T09:22:45.399Z,18.30
2018-04-27T09:25:13.711Z,18.40
2018-04-27T09:27:42.047Z,18.60
2018-04-27T09:30:09.607Z,18.60
2018-04-27T09:32:37.166Z,18.70
2018-04-27T09:35:04.706Z,18.80
2018-04-27T09:37:32.267Z,18.90
2018-04-27T09:39:59.829Z,18.90
2018-04-27T09:42:27.411Z,19.00
2018-04-27T09:44:54.950Z,19.10
2018-04-27T09:47:22.539Z,19.20
2018-04-27T09:49:50.088Z,19.40
2018-04-27T09:52:17.654Z,19.60
2018-04-27T09:54:45.206Z,19.60
2018-04-27T09:57:12.771Z,19.50
2018-04-27T09:59:40.322Z,19.60
2018-04-27T10:02:07.899Z,19.70
2018-04-27T10:04:35.443Z,19.80
2018-04-27T10:07:03.007Z,19.90
2018-04-27T10:09:30.547Z,20.00
2018-04-27T10:11:58.114Z,20.20
2018-04-27T10:14:25.656Z,20.20
2018-04-27T10:16:53.234Z,20.30
2018-04-27T10:19:20.784Z,20.50
2018-04-27T10:21:48.375Z,20.40
2018-04-27T10:24:15.917Z,20.60
2018-04-27T10:26:43.487Z,20.60
2018-04-27T10:29:11.026Z,20.70
2018-04-27T10:31:38.596Z,20.90
2018-04-27T10:34:06.165Z,20.80
2018-04-27T10:36:33.756Z,20.80
2018-04-27T10:39:01.319Z,20.80
2018-04-27T10:41:29.635Z,20.70
2018-04-27T10:43:57.208Z,20.70
2018-04-27T10:46:25.514Z,21.00
2018-04-27T10:48:53.883Z,21.00
2018-04-27T10:51:21.417Z,20.90
2018-04-27T10:53:48.985Z,21.10
2018-04-27T10:56:16.540Z,21.20
2018-04-27T10:58:44.114Z,21.40
2018-04-27T11:01:11.667Z,21.40
2018-04-27T11:03:39.248Z,21.60
2018-04-27T11:06:06.786Z,21.60
2018-04-27T11:08:34.375Z,21.80
2018-04-27T11:11:02.032Z,21.90
2018-04-27T11:13:29.566Z,21.80
2018-04-27T11:15:57.128Z,21.90
2018-04-27T11:18:24.704Z,22.00
2018-04-27T11:20:53.037Z,22.00
2018-04-27T11:23:20.604Z,22.00
2018-04-27T11:25:48.159Z,22.20
2018-04-27T11:28:15.727Z,22.30
2018-04-27T11:30:43.287Z,22.40
2018-04-27T11:33:10.871Z,22.40
2018-04-27T11:35:38.410Z,22.40
2018-04-27T11:38:05.987Z,22.40
2018-04-27T11:40:33.530Z,22.50
2018-04-27T11:43:01.105Z,22.70
2018-04-27T11:45:28.668Z,22.70
2018-04-27T11:47:56.256Z,22.90
2018-04-27T11:50:24.566Z,22.80
2018-04-27T11:52:52.131Z,22.80
2018-04-27T11:55:19.699Z,22.70
2018-04-27T11:57:47.268Z,22.90
2018-04-27T12:00:14.838Z,23.00
2018-04-27T12:02:43.171Z,23.40
2018-04-27T12:05:10.720Z,23.30
2018-04-27T12:07:39.052Z,23.50
2018-04-27T12:10:07.407Z,23.60
2018-04-27T12:12:34.960Z,23.60
2018-04-27T12:15:02.548Z,23.60
2018-04-27T12:17:30.885Z,23.40
2018-04-27T12:19:58.462Z,23.40
2018-04-27T12:22:26.019Z,23.50
2018-04-27T12:24:53.584Z,23.50
2018-04-27T12:27:21.164Z,23.40
2018-04-27T12:29:48.731Z,23.50
2018-04-27T12:32:16.273Z,23.40
2018-04-27T12:34:43.845Z,23.40
2018-04-27T12:37:11.400Z,23.60
2018-04-27T12:39:38.975Z,23.50
2018-04-27T12:42:06.532Z,23.20
2018-04-27T12:44:34.128Z,23.30
2018-04-27T12:47:02.456Z,23.80
2018-04-27T12:49:30.025Z,23.70
2018-04-27T12:51:57.574Z,23.90
2018-04-27T12:54:25.131Z,23.90
2018-04-27T12:56:52.691Z,23.80
2018-04-27T12:59:20.261Z,23.90
2018-04-27T13:01:47.813Z,23.90
2018-04-27T13:04:15.378Z,23.80
2018-04-27T13:06:42.915Z,23.90
2018-04-27T13:09:10.504Z,23.90
2018-04-27T13:11:38.055Z,24.10
2018-04-27T13:14:05.642Z,24.20
2018-04-27T13:16:33.202Z,24.20
2018-04-27T13:19:00.799Z,24.30
2018-04-27T13:21:28.351Z,24.50
2018-04-27T13:23:55.919Z,24.50
2018-04-27T13:26:23.492Z,24.60
2018-04-27T13:28:51.067Z,24.70
2018-04-27T13:31:18.620Z,24.50
2018-04-27T13:33:46.193Z,24.70
2018-04-27T13:36:13.769Z,24.60
2018-04-27T13:38:41.346Z,24.60
2018-04-27T13:41:08.904Z,24.80
2018-04-27T13:43:37.248Z,25.00
2018-04-27T13:46:04.790Z,24.90
2018-04-27T13:48:32.350Z,24.80
2018-04-27T13:50:59.930Z,24.70
2018-04-27T13:53:28.264Z,24.80
2018-04-27T13:55:55.846Z,24.80
2018-04-27T13:58:23.415Z,24.60
2018-04-27T14:00:50.988Z,24.60
2018-04-27T14:03:18.556Z,24.60
2018-04-27T14:05:46.176Z,24.70
2018-04-27T14:08:13.726Z,24.90
2018-04-27T14:10:41.311Z,24.90
2018-04-27T14:13:08.865Z,24.90
2018-04-27T14:15:36.452Z,25.10
2018-04-27T14:18:04.766Z,25.10
2018-04-27T14:20:33.099Z,25.00
2018-04-27T14:23:00.647Z,25.00
2018-04-27T14:25:29.244Z,24.90
2018-04-27T14:27:57.567Z,24.60
2018-04-27T14:30:25.917Z,24.70
2018-04-27T14:32:53.458Z,24.70
2018-04-27T14:35:21.038Z,24.80
2018-04-27T14:37:48.603Z,24.90
2018-04-27T14:40:16.183Z,25.10
2018-04-27T14:42:44.491Z,25.20
2018-04-27T14:45:12.065Z,25.20
2018-04-27T14:47:39.620Z,25.30
2018-04-27T14:50:07.197Z,25.50
2018-04-27T14:52:34.737Z,25.50
2018-04-27T14:55:02.308Z,25.60
2018-04-27T14:57:29.848Z,25.70
2018-04-27T14:59:57.461Z,25.70
2018-04-27T15:02:25.017Z,25.80
2018-04-27T15:04:52.582Z,25.80
2018-04-27T15:07:20.898Z,25.90
2018-04-27T15:09:48.472Z,25.90
2018-04-27T15:12:17.969Z,26.00
2018-04-27T15:14:45.606Z,25.90
2018-04-27T15:17:13.223Z,25.90
2018-04-27T15:19:41.927Z,26.00
2018-04-27T15:22:09.511Z,26.00
2018-04-27T15:24:37.838Z,25.70
2018-04-27T15:27:05.405Z,25.70
2018-04-27T15:29:32.973Z,25.50
2018-04-27T15:32:00.572Z,25.50
2018-04-27T15:34:28.122Z,25.50
2018-04-27T15:36:56.457Z,25.60
2018-04-27T15:39:24.008Z,25.60
2018-04-27T15:41:51.571Z,25.60
2018-04-27T15:44:20.144Z,25.60
2018-04-27T15:46:47.715Z,25.60
2018-04-27T15:49:15.282Z,25.80
2018-04-27T15:51:42.862Z,25.70
2018-04-27T15:54:10.408Z,25.70
2018-04-27T15:56:37.981Z,25.60
2018-04-27T15:59:05.535Z,25.70
2018-04-27T16:01:33.123Z,25.70
2018-04-27T16:04:01.439Z,26.60
2018-04-27T16:06:30.815Z,26.50
2018-04-27T16:08:59.303Z,27.50
2018-04-27T16:11:26.876Z,28.50
2018-04-27T16:13:55.359Z,29.20
2018-04-27T16:16:23.679Z,30.10
2018-04-27T16:18:52.019Z,30.80
2018-04-27T16:21:19.683Z,31.00
2018-04-27T16:23:47.178Z,31.20
2018-04-27T16:26:30.399Z,32.20
2018-04-27T16:28:57.953Z,32.10
2018-04-27T16:31:25.513Z,32.40
2018-04-27T16:33:53.073Z,32.40
2018-04-27T16:36:20.652Z,32.60
2018-04-27T16:38:48.965Z,32.00
2018-04-27T16:41:16.546Z,32.00
2018-04-27T16:43:44.095Z,31.90
2018-04-27T16:46:11.653Z,31.90
2018-04-27T16:48:39.214Z,31.90
2018-04-27T16:51:06.762Z,32.00
2018-04-27T16:53:34.333Z,32.10
2018-04-27T16:56:01.884Z,32.30
2018-04-27T16:58:29.472Z,32.40
2018-04-27T17:00:57.002Z,32.30
2018-04-27T17:03:24.572Z,31.70
2018-04-27T17:05:52.131Z,30.90
2018-04-27T17:08:19.728Z,30.90
2018-04-27T17:10:47.380Z,30.90
2018-04-27T17:13:15.011Z,30.50
2018-04-27T17:15:42.573Z,29.90
2018-04-27T17:18:10.147Z,29.50
2018-04-27T17:20:37.691Z,29.50
2018-04-27T17:26:08.444Z,29.40
2018-04-27T17:28:36.102Z,29.50
2018-04-27T17:31:04.368Z,29.40
2018-04-27T17:33:31.947Z,29.40
2018-04-27T17:35:59.492Z,29.10
2018-04-27T17:38:27.064Z,28.60
2018-04-27T17:40:54.624Z,27.90
2018-04-27T17:43:22.216Z,27.30
2018-04-27T17:45:49.788Z,26.50
2018-04-27T17:48:18.127Z,24.50
2018-04-27T17:50:45.686Z,24.50
2018-04-27T17:53:13.264Z,23.80
2018-04-27T17:55:40.817Z,23.40
2018-04-27T17:58:09.173Z,22.50
2018-04-27T18:00:36.723Z,22.50
2018-04-27T18:03:04.304Z,22.20
2018-04-27T18:05:31.861Z,21.80
2018-04-27T18:07:59.431Z,21.50
2018-04-27T18:10:26.972Z,21.10
2018-04-27T18:12:54.543Z,20.70
2018-04-27T18:15:22.092Z,20.50
2018-04-27T18:17:49.750Z,20.40
2018-04-27T18:20:17.246Z,20.10
2018-04-27T18:22:44.813Z,19.80
2018-04-27T18:25:13.123Z,19.20
2018-04-27T18:27:40.765Z,19.20
2018-04-27T18:30:08.260Z,19.10
2018-04-27T18:32:35.824Z,19.00
2018-04-27T18:35:03.382Z,18.80
2018-04-27T18:37:30.945Z,18.60
2018-04-27T18:39:58.495Z,18.50
2018-04-27T18:42:26.099Z,18.60
2018-04-27T18:44:53.661Z,18.50
2018-04-27T18:47:21.204Z,18.50
2018-04-27T18:49:48.761Z,18.40
2018-04-27T18:52:16.308Z,18.40
2018-04-27T18:54:43.909Z,18.50
2018-04-27T18:57:12.263Z,18.70
2018-04-27T18:59:42.517Z,18.70
2018-04-27T19:02:10.834Z,18.70
2018-04-27T19:04:38.411Z,18.70
2018-04-27T19:07:05.959Z,18.80
2018-04-27T19:09:33.535Z,18.90
2018-04-27T19:12:01.093Z,18.90
2018-04-27T19:14:28.665Z,18.90
2018-04-27T19:16:56.232Z,18.90
2018-04-27T19:19:23.820Z,19.00
2018-04-27T19:21:52.144Z,19.00
2018-04-27T19:24:19.714Z,18.90
2018-04-27T19:26:47.270Z,19.00
2018-04-27T19:29:14.836Z,18.90
2018-04-27T19:31:42.382Z,18.90
2018-04-27T19:34:10.731Z,19.00
2018-04-27T19:36:38.301Z,18.90
2018-04-27T19:39:05.866Z,19.00
2018-04-27T19:41:33.408Z,19.00
2018-04-27T19:44:00.984Z,19.00
2018-04-27T19:46:28.528Z,19.00
2018-04-27T19:48:56.089Z,19.00
2018-04-27T19:51:23.620Z,18.90
2018-04-27T19:53:51.954Z,18.80
2018-04-27T19:56:19.499Z,18.70
2018-04-27T19:58:47.060Z,18.70
2018-04-27T20:01:14.625Z,18.40
2018-04-27T20:03:42.181Z,18.40
2018-04-27T20:06:09.725Z,18.20
2018-04-27T20:08:37.304Z,18.00
2018-04-27T20:11:04.962Z,18.00
2018-04-27T20:13:32.464Z,17.70
2018-04-27T20:16:00.792Z,17.60
2018-04-27T20:18:29.208Z,17.50
2018-04-27T20:20:59.366Z,17.30
2018-04-27T20:23:44.624Z,17.20
2018-04-27T20:26:12.948Z,16.90
2018-04-27T20:28:40.510Z,16.90
2018-04-27T20:31:08.060Z,16.70
2018-04-27T20:33:35.624Z,16.70
2018-04-27T20:36:03.203Z,16.50
2018-04-27T20:38:31.666Z,16.50
2018-04-27T20:40:59.883Z,16.40
2018-04-27T20:43:27.448Z,16.40
2018-04-27T20:45:56.737Z,16.30
2018-04-27T20:48:25.996Z,16.30
2018-04-27T20:51:02.978Z,16.20
2018-04-27T20:53:33.225Z,16.10
2018-04-27T20:56:02.768Z,16.00
2018-04-27T20:58:31.083Z,15.70
2018-04-27T21:00:58.661Z,15.70
2018-04-27T21:03:26.205Z,15.80
2018-04-27T21:05:53.768Z,15.70
2018-04-27T21:08:21.310Z,15.60
2018-04-27T21:10:48.883Z,15.50
2018-04-27T21:13:16.428Z,15.50
2018-04-27T21:15:43.997Z,15.50
2018-04-27T21:18:22.331Z,15.40
2018-04-27T21:20:49.901Z,15.50
2018-04-27T21:23:17.454Z,15.40
2018-04-27T21:25:45.023Z,15.40
2018-04-27T21:28:14.348Z,15.40
2018-04-27T21:30:44.627Z,15.10
2018-04-27T21:33:12.173Z,15.10
2018-04-27T21:35:49.399Z,15.00
2018-04-27T21:38:33.901Z,14.90
2018-04-27T21:41:02.389Z,14.90
2018-04-27T21:43:29.928Z,14.80
2018-04-27T21:45:58.261Z,14.80
2018-04-27T21:48:35.559Z,14.80
2018-04-27T21:51:03.129Z,14.80
2018-04-27T21:53:30.673Z,14.80
2018-04-27T21:55:58.235Z,14.70
2018-04-27T21:58:29.672Z,14.70
2018-04-27T22:00:57.240Z,14.60
2018-04-27T22:03:24.782Z,14.60
2018-04-27T22:08:56.578Z,14.10
2018-04-27T22:11:26.600Z,14.00
2018-04-27T22:13:54.143Z,13.80
2018-04-27T22:16:26.368Z,13.60
2018-04-27T22:18:54.657Z,13.40
2018-04-27T22:21:22.233Z,13.40
2018-04-27T22:23:49.787Z,13.30
2018-04-27T22:26:17.352Z,13.30
2018-04-27T22:28:44.899Z,13.20
2018-04-27T22:31:12.481Z,13.10
2018-04-27T22:33:40.854Z,13.20
2018-04-27T22:36:30.013Z,13.30
2018-04-27T22:39:09.277Z,13.30
2018-04-27T22:41:36.857Z,13.30
2018-04-27T22:44:14.375Z,13.30
2018-04-27T22:46:42.725Z,13.20
2018-04-27T22:49:11.213Z,13.20
2018-04-27T22:51:39.562Z,13.20
2018-04-27T23:00:55.426Z,13.00
2018-04-27T23:03:32.950Z,12.90
2018-04-27T23:06:00.512Z,12.90
2018-04-27T23:08:28.056Z,12.80
2018-04-27T23:10:57.143Z,12.90
2018-04-27T23:13:35.032Z,12.90
2018-04-27T23:16:03.347Z,12.80
2018-04-27T23:18:46.211Z,12.70
2018-04-27T23:21:40.308Z,12.80
2018-04-27T23:24:09.899Z,12.80
2018-04-27T23:26:37.422Z,12.70
2018-04-27T23:29:04.974Z,12.60
2018-04-27T23:31:32.544Z,12.60
2018-04-27T23:34:00.091Z,12.50
2018-04-27T23:36:27.641Z,12.50
2018-04-27T23:38:55.187Z,12.40
2018-04-27T23:41:23.526Z,12.50
2018-04-27T23:43:51.104Z,12.50
2018-04-27T23:46:27.690Z,12.40
2018-04-27T23:48:56.014Z,12.40
2018-04-27T23:51:23.555Z,12.40
2018-04-27T23:53:51.116Z,12.30
2018-04-27T23:56:18.658Z,12.20
2018-04-27T23:58:46.993Z,12.20
